Time;durP1;ratioP1;P1;durP2;ratioP2;P2;SDS_P1;SDS_P2;PMS_P1;PMS_P2;Temp;Humidity;BMP_temperature;BMP_pressure;BME280_temperature;BME280_humidity;BME280_pressure;Samples;Min_cycle;Max_cycle;Signal;HPM_P1;HPM_P2
2022/05/04 00:01:36;;;;;;;10.28;4.97;;;;;;;12.61;53.45;100067.97;1747728;81;21028;-53
2022/05/04 00:04:02;;;;;;;8.75;5.08;;;;;;;12.62;53.54;100068.78;1682376;84;21075;-53
2022/05/04 00:06:29;;;;;;;7.70;5.05;;;;;;;12.57;53.65;100067.06;1747317;81;22273;-55
2022/05/04 00:08:55;;;;;;;7.17;4.47;;;;;;;12.51;53.80;100071.13;1745101;81;21148;-54
2022/05/04 00:11:22;;;;;;;7.33;4.75;;;;;;;12.45;53.95;100068.55;1744650;81;21046;-54
2022/05/04 00:13:49;;;;;;;9.00;4.72;;;;;;;12.41;54.02;100067.67;1743599;82;21077;-54
2022/05/04 00:16:16;;;;;;;10.48;5.00;;;;;;;12.40;54.07;100077.37;1744959;81;20983;-54
2022/05/04 00:18:42;;;;;;;7.67;4.83;;;;;;;12.39;54.18;100075.73;1745036;82;21157;-54
2022/05/04 00:21:09;;;;;;;7.22;4.80;;;;;;;12.36;54.26;100070.73;1748868;81;21592;-55
2022/05/04 00:23:35;;;;;;;8.50;5.20;;;;;;;12.36;54.27;100073.88;1749963;81;21694;-54
2022/05/04 00:26:02;;;;;;;7.45;4.87;;;;;;;12.37;54.25;100069.77;1693288;83;21608;-54
2022/05/04 00:28:29;;;;;;;9.05;4.60;;;;;;;12.41;54.19;100075.59;1744084;81;21074;-54
2022/05/04 00:30:55;;;;;;;8.63;4.95;;;;;;;12.42;54.24;100079.41;1741081;81;21112;-54
2022/05/04 00:33:22;;;;;;;8.70;5.10;;;;;;;12.47;54.23;100080.78;1744999;81;20992;-54
2022/05/04 00:35:48;;;;;;;7.20;4.35;;;;;;;12.50;54.32;100085.77;1744497;81;21000;-54
2022/05/04 00:38:15;;;;;;;7.97;4.72;;;;;;;12.48;54.49;100089.05;1733538;81;21138;-54
2022/05/04 00:40:42;;;;;;;9.18;4.95;;;;;;;12.44;54.65;100096.42;1703379;83;21058;-53
2022/05/04 00:43:25;;;;;;;9.40;4.30;;;;;;;12.37;54.75;100093.52;1744482;82;21198;-52
2022/05/04 00:45:52;;;;;;;8.00;5.30;;;;;;;12.34;54.84;100092.94;1744417;81;21070;-53
2022/05/04 00:48:18;;;;;;;10.08;5.58;;;;;;;12.30;54.92;100098.17;1744346;82;21055;-53
2022/05/04 00:50:45;;;;;;;8.78;4.80;;;;;;;12.26;54.91;100094.98;1746606;80;21068;-53
2022/05/04 00:53:12;;;;;;;8.55;5.28;;;;;;;12.25;54.88;100097.27;1739670;80;21028;-53
2022/05/04 00:55:39;;;;;;;9.60;4.75;;;;;;;12.22;54.88;100090.95;1762391;80;21146;-53
2022/05/04 01:00:51;;;;;;;8.63;5.07;;;;;;;12.22;54.93;100097.54;1755476;80;21090;-53
2022/05/04 01:03:18;;;;;;;8.60;4.95;;;;;;;12.21;54.85;100094.58;1764447;80;21324;-53
2022/05/04 01:05:45;;;;;;;7.10;4.75;;;;;;;12.22;54.89;100097.08;1759507;80;21055;-53
2022/05/04 01:08:12;;;;;;;10.03;4.85;;;;;;;12.25;54.88;100102.08;1718772;82;21152;-53
2022/05/04 01:10:39;;;;;;;9.33;5.33;;;;;;;12.28;54.90;100104.08;1759325;80;21054;-53
2022/05/04 01:13:05;;;;;;;8.38;5.17;;;;;;;12.30;54.83;100092.40;1759548;80;21023;-53
2022/05/04 01:15:32;;;;;;;8.18;4.58;;;;;;;12.33;54.81;100098.72;1762218;80;21082;-53
2022/05/04 01:17:59;;;;;;;7.47;5.28;;;;;;;12.38;54.52;100100.94;1758051;79;21018;-53
2022/05/04 01:20:25;;;;;;;10.78;5.40;;;;;;;12.42;54.34;100095.70;1759178;80;21154;-53
2022/05/04 01:22:52;;;;;;;9.28;5.05;;;;;;;12.48;54.16;100099.61;1759865;80;21046;-53
2022/05/04 01:25:19;;;;;;;7.40;4.55;;;;;;;12.51;54.02;100104.58;1719369;82;21050;-53
2022/05/04 01:27:45;;;;;;;8.35;4.55;;;;;;;12.57;53.70;100103.52;1718392;80;21082;-53
2022/05/04 01:30:13;;;;;;;7.28;4.33;;;;;;;12.60;53.58;100101.92;1721300;82;22268;-53
2022/05/04 01:32:41;;;;;;;6.72;4.25;;;;;;;12.63;53.37;100106.09;1706204;82;21168;-53
2022/05/04 01:35:08;;;;;;;8.18;4.92;;;;;;;12.66;53.32;100113.73;1764481;80;21014;-53
2022/05/04 01:37:37;;;;;;;8.18;5.15;;;;;;;12.61;53.21;100114.16;1760471;80;21035;-53
2022/05/04 01:40:05;;;;;;;9.40;4.62;;;;;;;12.58;53.08;100110.97;1759062;80;21098;-53
2022/05/04 01:42:33;;;;;;;9.18;4.35;;;;;;;12.57;53.02;100111.94;1762823;80;21042;-53
2022/05/04 01:44:59;;;;;;;7.75;4.80;;;;;;;12.56;52.91;100119.53;1760296;80;21167;-53
2022/05/04 01:47:26;;;;;;;9.73;5.33;;;;;;;12.53;52.71;100122.45;1765822;80;21046;-53
2022/05/04 01:49:52;;;;;;;7.75;4.60;;;;;;;12.52;52.49;100122.09;1766260;80;21038;-53
2022/05/04 01:52:19;;;;;;;8.40;5.17;;;;;;;12.51;52.55;100122.58;1748413;81;21023;-54
2022/05/04 01:54:45;;;;;;;12.10;4.75;;;;;;;12.50;52.49;100122.72;1745137;81;21453;-53
2022/05/04 01:57:12;;;;;;;9.85;4.72;;;;;;;12.49;52.42;100126.33;1741014;81;21136;-53
2022/05/04 01:59:39;;;;;;;8.15;4.85;;;;;;;12.48;52.54;100120.72;1746800;81;21866;-53
2022/05/04 02:02:10;;;;;;;12.73;5.22;;;;;;;12.45;52.64;100125.28;1750127;81;21547;-53
2022/05/04 02:04:36;;;;;;;7.45;4.62;;;;;;;12.42;52.60;100116.81;1746280;81;21054;-53
2022/05/04 02:07:03;;;;;;;8.05;4.90;;;;;;;12.43;52.61;100127.73;1750007;81;21119;-54
2022/05/04 02:09:30;;;;;;;9.65;4.53;;;;;;;12.42;52.56;100131.33;1745116;81;22081;-53
2022/05/04 02:11:56;;;;;;;11.48;5.10;;;;;;;12.40;52.51;100128.01;1747842;81;21458;-53
2022/05/04 02:14:25;;;;;;;7.95;4.80;;;;;;;12.40;52.44;100134.61;1743109;81;21555;-53
2022/05/04 02:16:51;;;;;;;8.83;4.47;;;;;;;12.37;52.43;100134.41;1746034;81;21069;-53
2022/05/04 02:19:18;;;;;;;7.05;4.22;;;;;;;12.35;52.47;100134.20;1746974;81;21047;-53
2022/05/04 02:21:45;;;;;;;7.17;4.65;;;;;;;12.32;52.33;100135.79;1744520;81;21244;-53
2022/05/04 02:24:11;;;;;;;10.30;4.90;;;;;;;12.28;52.28;100143.16;1753173;81;21039;-53
2022/05/04 02:26:38;;;;;;;6.80;4.37;;;;;;;12.24;52.27;100145.73;1741993;81;21181;-53
2022/05/04 02:29:05;;;;;;;6.85;4.80;;;;;;;12.21;52.21;100148.66;1745451;81;21028;-53
2022/05/04 02:31:32;;;;;;;7.42;4.15;;;;;;;12.18;52.21;100151.06;1751417;81;21580;-53
2022/05/04 02:33:59;;;;;;;7.58;4.58;;;;;;;12.16;52.26;100158.78;1747272;81;21156;-53
2022/05/04 02:39:10;;;;;;;12.70;5.30;;;;;;;12.05;52.58;100163.23;1747849;81;21549;-53
2022/05/04 02:41:36;;;;;;;8.33;5.12;;;;;;;11.99;52.75;100170.36;1749645;80;21513;-52
2022/05/04 02:44:03;;;;;;;8.73;4.28;;;;;;;11.93;52.97;100169.58;1743391;81;21027;-52
2022/05/04 02:46:30;;;;;;;9.85;5.10;;;;;;;11.93;53.11;100176.17;1684696;83;21752;-53
2022/05/04 02:48:57;;;;;;;8.48;4.80;;;;;;;11.90;53.23;100184.31;1750497;81;21608;-53
2022/05/04 02:51:23;;;;;;;8.63;4.60;;;;;;;11.89;53.23;100182.17;1742181;80;21606;-53
2022/05/04 02:53:49;;;;;;;8.23;4.90;;;;;;;11.84;53.28;100187.02;1717812;82;21095;-53
2022/05/04 02:56:17;;;;;;;8.43;4.58;;;;;;;11.82;53.26;100186.83;1687895;83;21637;-52
2022/05/04 02:58:53;;;;;;;8.15;4.90;;;;;;;11.77;53.17;100184.59;1745321;80;21278;-53
2022/05/04 03:04:06;;;;;;;8.08;4.85;;;;;;;11.76;53.13;100193.95;1752180;81;21008;-54
2022/05/04 03:06:39;;;;;;;9.13;4.30;;;;;;;11.76;53.11;100186.04;1701224;82;21755;-54
2022/05/04 03:09:08;;;;;;;7.60;4.83;;;;;;;11.76;53.11;100188.67;1679862;83;21396;-54
2022/05/04 03:14:22;;;;;;;8.27;5.17;;;;;;;11.81;52.84;100195.20;1724515;81;21013;-54
2022/05/04 03:16:51;;;;;;;9.60;4.62;;;;;;;11.83;52.83;100199.84;1738611;82;21139;-54
2022/05/04 03:19:17;;;;;;;7.80;4.65;;;;;;;11.82;52.94;100206.11;1739909;82;21130;-53
2022/05/04 03:21:45;;;;;;;9.35;5.53;;;;;;;11.78;53.05;100207.33;1739455;82;21115;-54
2022/05/04 03:24:11;;;;;;;10.28;5.35;;;;;;;11.77;53.12;100210.09;1735424;81;21143;-54
2022/05/04 03:26:39;;;;;;;8.68;5.35;;;;;;;11.78;53.05;100215.23;1700346;83;21046;-54
2022/05/04 03:29:06;;;;;;;10.65;5.95;;;;;;;11.83;52.90;100219.61;1676943;84;21025;-54
2022/05/04 03:31:32;;;;;;;8.35;5.03;;;;;;;11.87;52.63;100224.98;1671657;83;21063;-54
2022/05/04 03:33:59;;;;;;;11.78;5.05;;;;;;;11.90;52.47;100219.91;1736239;82;21027;-54
2022/05/04 03:36:25;;;;;;;10.78;5.35;;;;;;;11.94;52.33;100221.36;1743408;82;21103;-54
2022/05/04 03:38:53;;;;;;;10.05;5.30;;;;;;;11.96;52.21;100229.95;1744019;81;21036;-54
2022/05/04 03:41:20;;;;;;;8.93;5.08;;;;;;;11.98;52.20;100228.02;1705088;82;21110;-53
2022/05/04 03:43:48;;;;;;;8.20;5.03;;;;;;;12.02;51.94;100241.30;1679926;84;21112;-54
2022/05/04 03:46:26;;;;;;;11.00;5.00;;;;;;;12.03;51.92;100240.30;1690608;83;21071;-54
2022/05/04 03:48:55;;;;;;;10.88;4.50;;;;;;;12.07;51.89;100248.31;1698217;83;21124;-54
2022/05/04 03:51:22;;;;;;;7.33;4.35;;;;;;;12.11;51.72;100248.87;1697102;83;21031;-53
2022/05/04 03:53:51;;;;;;;6.92;4.33;;;;;;;12.14;51.63;100253.02;1694443;84;21099;-54
2022/05/04 03:56:18;;;;;;;8.20;3.92;;;;;;;12.18;51.56;100257.07;1701476;83;21063;-54
2022/05/04 03:58:46;;;;;;;7.10;4.20;;;;;;;12.22;51.41;100258.45;1699308;83;21811;-53
2022/05/04 04:01:18;;;;;;;6.87;3.80;;;;;;;12.25;51.29;100265.63;1701352;83;21548;-54
2022/05/04 04:03:42;;;;;;;7.60;5.10;;;;;;;12.32;51.16;100265.06;1697423;83;21536;-53
2022/05/04 04:06:08;;;;;;;8.13;4.75;;;;;;;12.39;51.03;100267.50;1705333;83;21534;-53
2022/05/04 04:08:35;;;;;;;9.55;4.20;;;;;;;12.41;50.61;100258.48;1705566;83;21055;-54
2022/05/04 04:11:01;;;;;;;9.00;4.15;;;;;;;12.49;50.31;100250.36;1700144;83;21031;-54
2022/05/04 04:13:28;;;;;;;7.00;3.98;;;;;;;12.53;50.29;100257.05;1751760;81;21102;-54
2022/05/04 04:15:55;;;;;;;7.03;4.20;;;;;;;12.58;50.01;100262.73;1747635;81;21027;-54
2022/05/04 04:18:23;;;;;;;10.00;4.50;;;;;;;12.61;49.89;100261.15;1749451;80;21086;-54
2022/05/04 04:23:36;;;;;;;7.08;3.75;;;;;;;12.68;49.79;100270.16;1754855;81;22337;-53
2022/05/04 04:26:05;;;;;;;10.30;4.37;;;;;;;12.68;49.70;100268.84;1747586;81;22140;-53
2022/05/04 04:28:34;;;;;;;8.00;4.00;;;;;;;12.72;49.82;100278.14;1748785;81;21047;-53
2022/05/04 04:31:01;;;;;;;8.55;4.10;;;;;;;12.75;49.86;100271.27;1748014;81;21087;-53
2022/05/04 04:33:29;;;;;;;7.75;4.03;;;;;;;12.82;49.60;100275.50;1716369;82;21484;-53
2022/05/04 04:35:57;;;;;;;7.67;3.90;;;;;;;12.88;49.19;100275.42;1749611;81;21005;-53
2022/05/04 04:38:23;;;;;;;8.80;4.85;;;;;;;12.94;48.96;100277.02;1747411;81;21142;-53
2022/05/04 04:40:50;;;;;;;8.05;4.22;;;;;;;13.01;49.49;100286.52;1755264;81;21130;-53
2022/05/04 04:43:17;;;;;;;8.45;4.37;;;;;;;13.04;49.67;100284.93;1687164;83;21024;-54
2022/05/04 04:45:47;;;;;;;8.38;4.33;;;;;;;13.08;49.86;100292.94;1746319;81;21047;-54
2022/05/04 04:48:17;;;;;;;7.47;3.70;;;;;;;13.13;49.63;100293.34;1705483;82;21544;-54
2022/05/04 04:50:44;;;;;;;11.53;4.55;;;;;;;13.16;49.90;100298.34;1695877;83;21222;-54
2022/05/04 04:53:11;;;;;;;8.73;4.50;;;;;;;13.17;50.01;100301.31;1695074;83;21087;-54
2022/05/04 04:56:25;;;;;;;15.70;5.35;;;;;;;13.16;49.90;100294.39;1806578;77;22777;-53
2022/05/04 04:58:51;;;;;;;12.50;5.28;;;;;;;13.15;49.47;100303.27;1774643;78;21038;-54
2022/05/04 05:01:19;;;;;;;8.90;4.92;;;;;;;13.18;49.63;100304.81;1778089;80;21552;-53
2022/05/04 05:03:46;;;;;;;13.00;4.78;;;;;;;13.18;49.61;100312.24;1773203;80;21055;-53
2022/05/04 05:06:13;;;;;;;8.48;4.90;;;;;;;13.18;49.78;100316.20;1780228;80;20983;-53
2022/05/04 05:08:44;;;;;;;9.60;4.53;;;;;;;13.19;49.89;100316.53;1780032;79;21086;-52
2022/05/04 05:11:08;;;;;;;10.65;4.60;;;;;;;13.20;49.84;100308.97;1774441;80;21285;-53
2022/05/04 05:16:06;;;;;;;10.95;5.45;;;;;;;13.24;50.06;100320.58;1776775;79;21197;-54
2022/05/04 05:16:07;;;;;;;11.03;5.53;;;;;;;13.23;49.89;100318.90;1780000;78;20956;-53
2022/05/04 05:18:34;;;;;;;10.85;5.25;;;;;;;13.23;49.81;100316.25;1773570;79;22259;-53
2022/05/04 05:21:00;;;;;;;10.90;5.87;;;;;;;13.23;50.11;100318.43;1779163;78;21034;-53
2022/05/04 05:23:27;;;;;;;12.15;4.95;;;;;;;13.25;49.68;100323.58;1767914;80;21113;-54
2022/05/04 05:25:54;;;;;;;14.58;5.55;;;;;;;13.23;49.59;100316.25;1770957;78;21513;-53
2022/05/04 05:28:21;;;;;;;11.35;4.12;;;;;;;13.26;49.15;100315.48;1781177;78;21038;-53
2022/05/04 05:30:47;;;;;;;9.05;4.33;;;;;;;13.28;48.77;100319.30;1778533;78;21490;-55
2022/05/04 05:33:14;;;;;;;8.50;4.40;;;;;;;13.29;48.60;100320.48;1781360;78;22321;-55
2022/05/04 05:35:40;;;;;;;8.65;4.40;;;;;;;13.33;48.61;100321.06;1782703;78;21078;-54
2022/05/04 05:38:09;;;;;;;9.78;4.53;;;;;;;13.37;48.50;100323.78;1782233;80;21080;-54
2022/05/04 05:40:36;;;;;;;9.15;3.80;;;;;;;13.42;48.43;100316.26;1776777;80;21013;-54
2022/05/04 05:43:03;;;;;;;6.87;3.98;;;;;;;13.49;48.98;100324.45;1773611;80;21042;-54
2022/05/04 17:14:03;;;;;;;5.40;1.10;;;;;;;16.99;21.86;100620.30;1793573;79;22311;-54
2022/05/04 17:16:31;;;;;;;4.35;1.30;;;;;;;16.87;22.52;100635.69;1743617;80;20997;-53
2022/05/04 17:18:58;;;;;;;4.03;0.90;;;;;;;16.72;23.10;100642.05;1754951;80;21149;-52
2022/05/04 17:21:24;;;;;;;4.83;1.37;;;;;;;16.62;23.38;100653.27;1757586;80;21076;-52
2022/05/04 17:23:51;;;;;;;3.60;0.85;;;;;;;16.53;24.02;100661.69;1760912;80;20942;-53
2022/05/04 17:26:17;;;;;;;4.90;1.17;;;;;;;16.46;24.88;100668.61;1747956;80;21041;-53
2022/05/04 17:28:45;;;;;;;5.30;1.20;;;;;;;16.38;25.00;100673.35;1751777;80;21001;-54
2022/05/04 17:31:11;;;;;;;4.87;1.30;;;;;;;16.25;25.17;100674.23;1762652;80;21143;-54
2022/05/04 17:36:43;;;;;;;5.80;1.20;;;;;;;15.90;26.08;100693.14;1763484;80;21062;-52
2022/05/04 17:39:10;;;;;;;8.78;1.25;;;;;;;15.68;26.48;100697.84;1762493;80;21044;-53
2022/05/04 17:41:37;;;;;;;4.70;1.07;;;;;;;15.51;26.68;100706.60;1744684;80;21083;-53
2022/05/04 17:44:06;;;;;;;4.75;1.27;;;;;;;15.35;26.88;100712.05;1748567;80;21142;-53
2022/05/04 17:46:34;;;;;;;5.22;1.22;;;;;;;15.20;26.79;100709.53;1756930;80;21075;-52
2022/05/04 17:49:02;;;;;;;3.60;1.02;;;;;;;15.07;27.12;100716.97;1755790;80;21526;-53
2022/05/04 17:51:29;;;;;;;6.50;1.45;;;;;;;14.92;27.19;100725.86;1743996;80;21500;-52
2022/05/04 17:53:58;;;;;;;5.35;1.00;;;;;;;14.77;27.19;100731.58;1747621;80;21542;-53
2022/05/04 17:56:26;;;;;;;3.83;1.17;;;;;;;14.64;27.38;100738.52;1755696;80;21140;-53
2022/05/04 17:58:54;;;;;;;3.40;0.95;;;;;;;14.54;27.80;100739.45;1755774;80;20986;-53
2022/05/04 18:04:08;;;;;;;3.47;0.70;;;;;;;14.30;27.65;100752.11;1762003;80;22132;-53
2022/05/04 18:06:34;;;;;;;5.20;1.50;;;;;;;14.22;28.32;100758.61;1755846;80;21099;-53
2022/05/04 18:09:03;;;;;;;3.33;0.98;;;;;;;14.11;28.66;100761.37;1757364;80;21181;-53
2022/05/04 18:11:29;;;;;;;4.30;0.88;;;;;;;14.03;28.92;100766.50;1749154;80;21060;-53
2022/05/04 18:13:57;;;;;;;5.25;1.25;;;;;;;13.92;28.46;100774.08;1760881;80;21040;-53
2022/05/04 18:16:23;;;;;;;5.95;1.07;;;;;;;13.85;28.72;100771.59;1721411;82;21086;-54
2022/05/04 18:18:51;;;;;;;4.25;1.02;;;;;;;13.79;28.96;100777.45;1745191;80;21053;-53
2022/05/04 18:21:18;;;;;;;5.10;0.80;;;;;;;13.71;29.39;100780.74;1746942;82;21134;-52
2022/05/04 18:23:45;;;;;;;5.50;1.35;;;;;;;13.64;29.02;100789.69;1739105;80;21064;-54
2022/05/04 18:26:12;;;;;;;3.80;1.22;;;;;;;13.60;29.51;100798.02;1741741;80;21005;-53
2022/05/04 18:28:39;;;;;;;5.87;1.20;;;;;;;13.54;30.18;100798.90;1746461;82;21056;-53
2022/05/04 18:31:06;;;;;;;4.00;1.17;;;;;;;13.48;29.68;100803.88;1740324;80;21139;-54
2022/05/04 18:33:33;;;;;;;3.77;0.90;;;;;;;13.41;29.52;100808.02;1741413;82;21144;-53
2022/05/04 18:35:59;;;;;;;3.62;1.30;;;;;;;13.34;29.68;100813.81;1736745;81;21057;-54
2022/05/04 18:38:26;;;;;;;3.15;0.80;;;;;;;13.29;29.65;100817.80;1745174;80;21033;-54
2022/05/04 18:40:52;;;;;;;4.47;1.22;;;;;;;13.21;29.71;100821.08;1738723;82;21013;-53
2022/05/04 18:43:19;;;;;;;4.40;1.00;;;;;;;13.11;29.48;100821.03;1752364;80;21100;-53
2022/05/04 18:45:47;;;;;;;6.10;0.95;;;;;;;13.07;29.89;100829.34;1745030;80;21102;-54
2022/05/04 18:48:14;;;;;;;4.60;1.17;;;;;;;12.98;30.00;100833.59;1750331;80;21143;-53
2022/05/04 18:50:43;;;;;;;5.05;1.55;;;;;;;12.91;30.87;100835.04;1748863;80;21036;-53
2022/05/04 18:53:09;;;;;;;5.80;1.30;;;;;;;12.80;31.79;100843.37;1743502;80;21542;-53
2022/05/04 18:55:36;;;;;;;5.92;1.10;;;;;;;12.70;31.85;100855.66;1740365;80;21499;-53
2022/05/04 18:58:03;;;;;;;4.00;1.40;;;;;;;12.58;32.32;100854.84;1744237;82;21088;-54
2022/05/04 19:00:30;;;;;;;7.47;1.52;;;;;;;12.49;33.39;100858.25;1742931;80;21538;-53
2022/05/04 19:02:57;;;;;;;4.05;0.98;;;;;;;12.39;33.24;100864.73;1739175;82;21081;-53
2022/05/04 19:05:23;;;;;;;4.17;1.05;;;;;;;12.33;33.32;100874.95;1741868;82;21029;-54
2022/05/04 19:07:51;;;;;;;9.05;1.52;;;;;;;12.26;33.70;100889.11;1740243;82;21542;-53
2022/05/04 19:10:19;;;;;;;3.25;0.90;;;;;;;12.18;33.69;100887.06;1742834;82;21141;-53
2022/05/04 19:12:47;;;;;;;4.85;1.32;;;;;;;12.14;34.42;100892.69;1744580;81;21052;-54
2022/05/04 19:15:14;;;;;;;4.95;1.05;;;;;;;12.07;34.32;100893.68;1741590;80;20978;-53
2022/05/04 19:17:44;;;;;;;4.70;0.98;;;;;;;11.99;34.63;100894.27;1739970;82;21042;-54
2022/05/04 19:20:10;;;;;;;4.37;1.05;;;;;;;11.91;34.98;100897.98;1742465;82;21120;-53
2022/05/04 19:22:37;;;;;;;4.10;1.02;;;;;;;11.85;34.80;100886.54;1739029;82;21621;-53
2022/05/04 19:25:05;;;;;;;4.58;1.32;;;;;;;11.77;35.14;100906.06;1743119;81;21093;-53
2022/05/04 19:27:32;;;;;;;5.08;1.07;;;;;;;11.67;35.01;100898.88;1741184;82;21041;-54
2022/05/04 19:29:58;;;;;;;6.15;1.32;;;;;;;11.62;35.39;100900.20;1745875;82;21041;-54
2022/05/04 19:32:25;;;;;;;3.42;0.98;;;;;;;11.54;35.22;100909.98;1741311;82;21032;-53
2022/05/04 19:34:52;;;;;;;4.62;1.22;;;;;;;11.47;35.70;100903.52;1745248;80;21148;-53
2022/05/04 19:37:19;;;;;;;4.58;1.00;;;;;;;11.41;35.83;100915.33;1734248;81;21052;-53
2022/05/04 19:39:47;;;;;;;4.85;1.12;;;;;;;11.37;35.92;100920.97;1739750;81;21049;-53
2022/05/04 19:42:13;;;;;;;4.17;1.10;;;;;;;11.30;35.94;100923.22;1736258;82;21086;-53
2022/05/04 19:44:41;;;;;;;5.20;1.75;;;;;;;11.26;36.43;100925.25;1740627;81;21009;-53
2022/05/04 19:47:10;;;;;;;2.62;0.68;;;;;;;11.17;35.48;100927.23;1734367;81;21146;-53
2022/05/04 19:49:36;;;;;;;5.37;1.10;;;;;;;11.12;35.12;100929.38;1738817;82;21060;-53
2022/05/04 19:52:04;;;;;;;3.58;1.12;;;;;;;11.06;35.91;100929.35;1738393;81;21487;-54
2022/05/04 19:54:31;;;;;;;4.25;1.20;;;;;;;11.02;36.07;100934.95;1737170;82;21108;-53
2022/05/04 19:56:59;;;;;;;6.30;1.42;;;;;;;10.96;36.29;100941.03;1735896;82;21010;-54
2022/05/04 19:59:25;;;;;;;3.08;1.00;;;;;;;10.91;35.35;100947.11;1738290;81;21095;-53
2022/05/04 20:01:51;;;;;;;5.45;1.20;;;;;;;10.88;36.22;100954.39;1736847;81;21060;-54
2022/05/04 20:04:18;;;;;;;2.98;0.95;;;;;;;10.84;35.94;100955.06;1739602;81;21045;-53
2022/05/04 20:06:44;;;;;;;4.58;0.95;;;;;;;10.79;36.08;100959.82;1739277;81;21033;-53
2022/05/04 20:09:11;;;;;;;5.42;1.45;;;;;;;10.74;35.80;100963.26;1738886;81;21096;-53
2022/05/04 20:11:37;;;;;;;2.83;0.90;;;;;;;10.69;36.44;100966.69;1732940;82;21199;-54
2022/05/04 20:14:04;;;;;;;4.03;0.85;;;;;;;10.65;35.09;100966.56;1739466;82;21049;-54
2022/05/04 20:16:31;;;;;;;5.92;1.35;;;;;;;10.62;35.81;100972.03;1737389;81;21053;-53
2022/05/04 20:18:59;;;;;;;4.20;1.30;;;;;;;10.56;36.25;100982.53;1736951;82;21061;-53
2022/05/04 20:21:25;;;;;;;3.47;1.07;;;;;;;10.54;36.30;100980.00;1736082;81;21079;-53
2022/05/04 20:23:53;;;;;;;4.45;1.10;;;;;;;10.52;35.76;100985.86;1740653;81;21149;-53
2022/05/04 20:26:19;;;;;;;7.40;1.30;;;;;;;10.48;36.42;100987.00;1736766;82;22084;-53
2022/05/04 20:28:46;;;;;;;4.28;1.22;;;;;;;10.42;36.46;100987.42;1737845;82;21589;-53
2022/05/04 20:31:17;;;;;;;3.25;0.95;;;;;;;10.38;36.16;100993.37;1734219;81;21520;-52
2022/05/04 20:33:43;;;;;;;3.22;1.10;;;;;;;10.35;36.04;100997.53;1736519;81;21006;-53
2022/05/04 20:36:10;;;;;;;5.47;1.10;;;;;;;10.31;36.67;100996.53;1733912;80;21530;-52
2022/05/04 20:41:22;;;;;;;3.95;1.05;;;;;;;10.25;36.68;101000.88;1735252;82;22263;-52
2022/05/04 20:43:48;;;;;;;2.75;0.90;;;;;;;10.18;36.52;101005.23;1736386;82;21052;-51
2022/05/04 20:46:15;;;;;;;4.67;1.00;;;;;;;10.17;36.38;101007.52;1721169;81;21021;-52
2022/05/04 20:48:41;;;;;;;4.55;1.07;;;;;;;10.11;36.31;101006.61;1732142;81;21130;-52
2022/05/04 20:53:54;;;;;;;3.72;1.05;;;;;;;10.04;36.02;101019.33;1623400;86;21026;-52
2022/05/04 20:56:21;;;;;;;5.53;1.10;;;;;;;10.01;36.31;101027.91;1624161;86;21168;-52
2022/05/04 20:58:47;;;;;;;4.42;1.10;;;;;;;9.97;36.31;101035.16;1671785;83;21095;-51
2022/05/04 21:01:15;;;;;;;4.35;1.07;;;;;;;9.93;36.51;101041.55;1719017;82;21185;-52
2022/05/04 21:03:41;;;;;;;5.95;1.22;;;;;;;9.91;36.37;101051.81;1711710;82;21096;-52
2022/05/04 21:06:08;;;;;;;5.03;1.42;;;;;;;9.85;37.05;101047.34;1732426;82;21041;-53
2022/05/04 21:08:36;;;;;;;3.77;0.90;;;;;;;9.83;37.08;101051.86;1720716;81;21030;-52
2022/05/04 21:11:03;;;;;;;4.53;0.90;;;;;;;9.81;37.19;101051.09;1728139;82;21534;-52
2022/05/04 21:13:32;;;;;;;3.80;1.05;;;;;;;9.79;37.32;101058.25;1726691;82;21144;-52
2022/05/04 21:15:59;;;;;;;3.37;1.05;;;;;;;9.76;37.72;101053.19;1737953;82;21026;-52
2022/05/04 21:18:26;;;;;;;3.50;0.88;;;;;;;9.73;37.42;101063.06;1735636;82;21001;-52
2022/05/04 21:20:54;;;;;;;4.70;1.10;;;;;;;9.69;38.29;101065.05;1736423;82;21180;-52
2022/05/04 21:23:21;;;;;;;2.62;0.72;;;;;;;9.67;38.05;101065.64;1699833;84;21034;-52
2022/05/04 21:25:47;;;;;;;4.03;1.00;;;;;;;9.63;38.08;101067.63;1738538;82;21137;-52
2022/05/04 21:28:14;;;;;;;3.33;1.05;;;;;;;9.60;38.07;101078.33;1738978;82;21006;-53
2022/05/04 21:30:41;;;;;;;3.65;1.07;;;;;;;9.57;38.35;101073.75;1740528;81;21053;-52
2022/05/04 21:33:09;;;;;;;4.87;1.47;;;;;;;9.51;37.02;101079.39;1735405;82;21005;-53
2022/05/04 21:35:36;;;;;;;7.70;1.25;;;;;;;9.48;37.48;101075.16;1738852;81;21151;-52
2022/05/04 21:38:03;;;;;;;4.47;1.27;;;;;;;9.44;37.93;101079.77;1743312;82;21085;-53
2022/05/04 21:40:30;;;;;;;3.58;0.88;;;;;;;9.41;37.95;101082.59;1740129;82;21061;-52
2022/05/04 21:42:58;;;;;;;3.92;1.55;;;;;;;9.36;38.39;101083.36;1731888;82;21029;-52
2022/05/04 21:45:25;;;;;;;4.85;1.20;;;;;;;9.33;37.63;101078.33;1738483;80;21053;-54
2022/05/04 21:47:52;;;;;;;3.58;1.15;;;;;;;9.29;37.56;101079.44;1735706;82;21535;-52
2022/05/04 21:50:19;;;;;;;4.78;1.05;;;;;;;9.25;37.76;101087.98;1745528;81;21565;-52
2022/05/04 21:52:45;;;;;;;3.83;1.37;;;;;;;9.22;38.18;101090.80;1733869;82;21078;-52
2022/05/04 21:55:13;;;;;;;3.33;1.12;;;;;;;9.20;38.39;101094.48;1744010;81;21036;-52
2022/05/04 21:57:40;;;;;;;4.17;1.05;;;;;;;9.16;38.00;101090.34;1737888;81;21554;-52
2022/05/04 22:00:19;;;;;;;3.98;0.80;;;;;;;9.14;37.80;101095.69;1720874;82;21021;-53
2022/05/04 22:02:46;;;;;;;4.20;1.35;;;;;;;9.10;38.07;101101.61;1730078;80;21155;-51
2022/05/04 22:05:13;;;;;;;3.12;0.98;;;;;;;9.05;38.24;101103.67;1717243;82;21071;-53
2022/05/04 22:07:40;;;;;;;3.83;1.25;;;;;;;9.01;38.07;101103.51;1725151;82;21022;-53
2022/05/04 22:10:08;;;;;;;3.55;1.20;;;;;;;8.97;38.10;101103.30;1725213;82;21092;-53
2022/05/04 22:15:20;;;;;;;4.12;1.30;;;;;;;8.91;39.07;101102.39;1741950;82;21523;-52
2022/05/04 22:17:46;;;;;;;4.12;0.93;;;;;;;8.87;38.46;101106.12;1741069;82;21029;-52
2022/05/04 22:20:14;;;;;;;3.50;1.30;;;;;;;8.85;38.58;101106.70;1742992;82;21513;-53
2022/05/04 22:22:41;;;;;;;4.97;1.17;;;;;;;8.80;38.57;101110.07;1742775;81;20989;-53
2022/05/04 22:25:09;;;;;;;2.65;0.80;;;;;;;8.78;38.89;101116.72;1746228;80;21077;-53
2022/05/04 22:27:36;;;;;;;6.25;0.90;;;;;;;8.76;38.58;101115.11;1743328;82;21128;-53
2022/05/04 22:30:06;;;;;;;7.62;1.40;;;;;;;8.74;38.99;101120.00;1740205;82;21002;-53
2022/05/04 22:32:34;;;;;;;5.33;1.30;;;;;;;8.72;38.55;101122.33;1737177;82;21073;-53
2022/05/04 22:35:03;;;;;;;4.08;1.10;;;;;;;8.69;39.28;101119.44;1746006;81;21084;-52
2022/05/04 22:37:31;;;;;;;3.87;0.90;;;;;;;8.69;38.82;101119.44;1738964;81;21071;-52
2022/05/04 22:40:00;;;;;;;5.87;1.02;;;;;;;8.65;38.77;101122.34;1736931;82;21101;-52
2022/05/04 22:42:27;;;;;;;3.98;1.10;;;;;;;8.62;39.29;101128.59;1738221;81;21048;-52
2022/05/04 22:44:54;;;;;;;3.10;0.93;;;;;;;8.61;39.44;101124.75;1740448;82;21554;-52
2022/05/04 22:47:20;;;;;;;5.15;1.30;;;;;;;8.61;39.09;101137.42;1733670;82;21054;-51
2022/05/04 22:49:47;;;;;;;4.70;1.45;;;;;;;8.59;39.16;101135.81;1734396;81;21036;-52
2022/05/04 22:52:14;;;;;;;4.92;1.47;;;;;;;8.56;39.36;101138.16;1734317;82;21148;-52
2022/05/04 22:54:41;;;;;;;6.87;1.90;;;;;;;8.53;39.34;101137.03;1736624;81;21136;-51
2022/05/04 22:57:09;;;;;;;4.17;1.07;;;;;;;8.51;40.26;101144.16;1737016;81;21099;-54
2022/05/04 22:59:36;;;;;;;4.60;1.37;;;;;;;8.50;40.04;101142.45;1727504;81;21519;-52
2022/05/04 23:02:03;;;;;;;4.53;1.15;;;;;;;8.47;40.31;101146.56;1720592;82;21002;-52
2022/05/04 23:04:30;;;;;;;3.37;1.17;;;;;;;8.46;40.37;101146.20;1745293;79;21157;-51
2022/05/04 23:06:57;;;;;;;3.80;1.22;;;;;;;8.45;40.56;101140.57;1748424;80;20993;-51
2022/05/04 23:09:23;;;;;;;5.80;1.55;;;;;;;8.45;40.48;101146.65;1757850;81;21132;-54
2022/05/04 23:11:50;;;;;;;3.95;0.93;;;;;;;8.42;39.88;101142.02;1753006;81;21072;-54
2022/05/04 23:14:16;;;;;;;5.47;1.32;;;;;;;8.40;40.07;101147.36;1734525;82;21060;-54
2022/05/04 23:16:43;;;;;;;3.75;1.20;;;;;;;8.38;40.66;101153.17;1725268;81;21141;-51
2022/05/04 23:19:09;;;;;;;2.92;1.00;;;;;;;8.33;40.38;101146.88;1730423;81;21002;-52
2022/05/04 23:21:36;;;;;;;4.72;1.30;;;;;;;8.29;39.99;101152.41;1725663;82;21084;-53
2022/05/04 23:24:05;;;;;;;5.17;1.30;;;;;;;8.26;39.82;101159.97;1725368;82;21045;-54